Time;durP1;ratioP1;P1;durP2;ratioP2;P2;SDS_P1;SDS_P2;PMS_P1;PMS_P2;Temp;Humidity;BMP_temperature;BMP_pressure;BME280_temperature;BME280_humidity;BME280_pressure;Samples;Min_cycle;Max_cycle;Signal;HPM_P1;HPM_P2
2023/09/24 00:00:25;;;;;;;8.23;3.17;;;;;;;;;;5012934;28;20103;-69
2023/09/24 00:02:51;;;;;;;7.20;3.17;;;;;;;;;;5015712;28;20038;-69
2023/09/24 00:05:17;;;;;;;8.80;3.70;;;;;;;;;;5016619;28;20060;-69
2023/09/24 00:07:42;;;;;;;9.68;3.92;;;;;;;;;;5013737;28;20050;-69
2023/09/24 00:10:08;;;;;;;12.10;3.70;;;;;;;;;;5012705;28;20499;-70
2023/09/24 00:12:33;;;;;;;7.70;3.63;;;;;;;;;;5013631;28;21000;-69
2023/09/24 00:14:59;;;;;;;8.07;3.10;;;;;;;;;;5014775;28;20675;-69
2023/09/24 00:17:24;;;;;;;6.43;3.10;;;;;;;;;;5010416;28;20046;-69
2023/09/24 00:19:49;;;;;;;5.15;2.75;;;;;;;;;;5014663;28;20037;-69
2023/09/24 00:22:15;;;;;;;5.60;2.38;;;;;;;;;;5018354;28;20045;-69
2023/09/24 00:24:42;;;;;;;6.78;2.70;;;;;;;;;;5017575;28;20048;-70
2023/09/24 00:27:09;;;;;;;5.50;2.83;;;;;;;;;;5012205;28;20072;-69
2023/09/24 00:29:34;;;;;;;8.48;2.90;;;;;;;;;;5013795;28;20112;-69
2023/09/24 00:32:00;;;;;;;9.18;3.42;;;;;;;;;;5012320;28;20132;-69
2023/09/24 00:34:25;;;;;;;9.38;4.22;;;;;;;;;;5012419;28;20034;-69
2023/09/24 00:36:51;;;;;;;10.07;3.97;;;;;;;;;;5015497;28;20042;-69
2023/09/24 00:39:17;;;;;;;9.50;3.80;;;;;;;;;;5013603;28;20491;-69
2023/09/24 00:41:45;;;;;;;6.60;3.00;;;;;;;;;;5018382;28;20534;-69
2023/09/24 00:44:14;;;;;;;6.30;3.15;;;;;;;;;;5024287;28;20059;-69
2023/09/24 00:46:42;;;;;;;5.35;2.80;;;;;;;;;;5015412;28;20049;-69
2023/09/24 00:49:07;;;;;;;6.05;2.85;;;;;;;;;;5011857;28;20037;-69
2023/09/24 00:51:33;;;;;;;7.43;2.80;;;;;;;;;;5012454;28;20048;-70
2023/09/24 00:53:59;;;;;;;7.22;2.60;;;;;;;;;;5021513;28;20032;-70
2023/09/24 00:56:26;;;;;;;3.30;2.28;;;;;;;;;;5016061;28;20045;-69
2023/09/24 00:58:52;;;;;;;5.28;2.30;;;;;;;;;;5010933;28;20037;-69
2023/09/24 01:01:20;;;;;;;5.15;2.35;;;;;;;;;;5012371;28;20046;-69
2023/09/24 01:03:48;;;;;;;4.03;2.42;;;;;;;;;;5013780;28;20129;-69
2023/09/24 01:06:14;;;;;;;6.15;2.55;;;;;;;;;;5008685;28;20474;-69
2023/09/24 01:08:42;;;;;;;4.57;2.30;;;;;;;;;;5011562;28;20030;-70
2023/09/24 01:11:07;;;;;;;4.45;2.30;;;;;;;;;;5015491;28;20422;-69
2023/09/24 01:13:40;;;;;;;8.75;2.60;;;;;;;;;;5014924;28;20041;-69
2023/09/24 01:16:06;;;;;;;4.30;2.27;;;;;;;;;;5011777;28;20048;-69
2023/09/24 01:18:34;;;;;;;5.65;2.58;;;;;;;;;;5011376;28;20057;-69
2023/09/24 01:21:00;;;;;;;4.93;2.30;;;;;;;;;;5015661;28;20029;-69
2023/09/24 01:23:29;;;;;;;5.20;2.40;;;;;;;;;;5015339;28;20037;-69
2023/09/24 01:25:55;;;;;;;7.43;2.58;;;;;;;;;;5011891;28;20049;-69
2023/09/24 01:28:20;;;;;;;8.65;3.08;;;;;;;;;;5010216;28;20125;-69
2023/09/24 01:30:46;;;;;;;4.75;2.47;;;;;;;;;;5011946;28;20091;-69
2023/09/24 01:33:11;;;;;;;3.72;2.22;;;;;;;;;;5013704;28;20144;-70
2023/09/24 01:35:38;;;;;;;7.22;2.70;;;;;;;;;;5014388;28;20447;-69
2023/09/24 01:38:04;;;;;;;4.45;2.50;;;;;;;;;;5012051;28;20052;-69
2023/09/24 01:40:34;;;;;;;4.32;2.47;;;;;;;;;;5009980;28;20041;-69
2023/09/24 01:43:01;;;;;;;7.75;2.80;;;;;;;;;;5012284;28;20041;-69
2023/09/24 01:45:30;;;;;;;5.75;2.40;;;;;;;;;;5014735;28;20045;-69
2023/09/24 01:47:55;;;;;;;7.45;2.22;;;;;;;;;;5012141;28;20042;-69
2023/09/24 01:50:26;;;;;;;7.30;2.47;;;;;;;;;;5011017;28;20087;-69
2023/09/24 01:52:52;;;;;;;5.22;2.40;;;;;;;;;;5014630;28;20084;-69
2023/09/24 01:55:17;;;;;;;6.43;2.90;;;;;;;;;;5014740;28;20037;-69
2023/09/24 01:57:44;;;;;;;10.52;2.90;;;;;;;;;;5011672;28;20056;-70
2023/09/24 02:00:18;;;;;;;5.05;2.47;;;;;;;;;;5011914;28;20065;-69
2023/09/24 02:02:43;;;;;;;4.35;2.40;;;;;;;;;;5014030;28;20030;-69
2023/09/24 02:05:10;;;;;;;8.07;2.60;;;;;;;;;;5017526;28;20568;-69
2023/09/24 02:07:38;;;;;;;5.75;2.50;;;;;;;;;;5023983;28;20052;-69
2023/09/24 02:10:05;;;;;;;4.80;2.15;;;;;;;;;;5016270;28;20037;-69
2023/09/24 02:12:35;;;;;;;5.43;2.17;;;;;;;;;;5012174;28;20113;-69
2023/09/24 02:15:03;;;;;;;6.80;2.42;;;;;;;;;;5015720;28;20860;-69
2023/09/24 02:17:28;;;;;;;5.85;2.80;;;;;;;;;;5010934;28;20537;-69
2023/09/24 02:19:55;;;;;;;9.50;2.75;;;;;;;;;;5012646;28;20128;-69
2023/09/24 02:22:22;;;;;;;7.85;2.40;;;;;;;;;;5014256;28;20057;-69
2023/09/24 02:24:48;;;;;;;3.50;2.03;;;;;;;;;;5016519;28;20042;-69
2023/09/24 02:27:13;;;;;;;3.15;2.00;;;;;;;;;;5018250;28;20040;-69
2023/09/24 02:29:39;;;;;;;7.93;2.80;;;;;;;;;;5017726;28;20025;-69
2023/09/24 02:32:06;;;;;;;5.75;2.60;;;;;;;;;;5014900;28;20512;-69
2023/09/24 02:34:31;;;;;;;7.63;2.50;;;;;;;;;;5014744;28;20034;-69
2023/09/24 02:36:56;;;;;;;17.23;2.60;;;;;;;;;;5017790;28;20578;-69
2023/09/24 02:39:22;;;;;;;5.53;2.55;;;;;;;;;;5018267;28;20021;-69
2023/09/24 02:41:49;;;;;;;6.03;2.42;;;;;;;;;;5013672;28;20029;-69
2023/09/24 02:44:17;;;;;;;7.93;2.47;;;;;;;;;;5011837;28;20038;-69
2023/09/24 02:46:44;;;;;;;11.02;2.75;;;;;;;;;;5014253;28;20112;-69
2023/09/24 02:49:10;;;;;;;6.57;2.50;;;;;;;;;;5018163;28;20072;-69
2023/09/24 02:51:35;;;;;;;6.57;2.47;;;;;;;;;;5017276;28;20489;-69
2023/09/24 02:54:01;;;;;;;4.07;2.17;;;;;;;;;;5015766;28;20030;-69
2023/09/24 02:56:28;;;;;;;7.10;2.80;;;;;;;;;;5013023;28;20046;-69
2023/09/24 02:58:54;;;;;;;7.00;2.50;;;;;;;;;;5016350;28;20048;-69
2023/09/24 03:01:20;;;;;;;9.82;2.60;;;;;;;;;;5016555;28;20045;-69
2023/09/24 03:03:45;;;;;;;5.95;2.38;;;;;;;;;;5015513;28;20060;-69
2023/09/24 03:06:12;;;;;;;3.88;2.25;;;;;;;;;;5013991;28;20029;-69
2023/09/24 03:08:37;;;;;;;8.80;2.30;;;;;;;;;;5015120;28;20034;-69
2023/09/24 03:11:14;;;;;;;8.60;2.30;;;;;;;;;;5017609;28;20080;-69
2023/09/24 03:13:39;;;;;;;3.30;2.08;;;;;;;;;;5015217;28;20033;-69
2023/09/24 03:16:05;;;;;;;5.03;2.67;;;;;;;;;;5012235;28;20049;-70
2023/09/24 03:18:32;;;;;;;4.97;2.40;;;;;;;;;;5012496;28;20034;-69
2023/09/24 03:20:57;;;;;;;7.43;2.88;;;;;;;;;;5018301;28;20021;-69
2023/09/24 03:23:23;;;;;;;11.63;2.25;;;;;;;;;;5015586;28;20034;-69
2023/09/24 03:25:48;;;;;;;9.00;2.35;;;;;;;;;;5015717;28;20424;-69
2023/09/24 03:28:13;;;;;;;8.55;2.30;;;;;;;;;;5019495;28;20400;-69
2023/09/24 03:30:39;;;;;;;9.15;2.50;;;;;;;;;;5023827;28;20037;-70
2023/09/24 03:33:04;;;;;;;7.22;2.50;;;;;;;;;;5020840;28;20083;-69
2023/09/24 03:35:30;;;;;;;8.32;2.63;;;;;;;;;;5012916;28;20103;-69
2023/09/24 03:37:56;;;;;;;6.07;2.25;;;;;;;;;;5012505;28;20045;-69
2023/09/24 03:40:24;;;;;;;5.72;2.03;;;;;;;;;;5012480;28;20116;-70
2023/09/24 03:42:50;;;;;;;6.40;2.20;;;;;;;;;;5015356;28;20065;-70
2023/09/24 03:45:18;;;;;;;3.78;2.08;;;;;;;;;;5017027;28;20083;-69
2023/09/24 03:47:45;;;;;;;3.97;2.20;;;;;;;;;;5014145;28;20033;-69
2023/09/24 03:50:17;;;;;;;4.28;2.00;;;;;;;;;;5012948;28;20029;-68
2023/09/24 03:52:50;;;;;;;9.88;2.53;;;;;;;;;;5013742;28;20520;-69
2023/09/24 03:55:16;;;;;;;3.42;2.17;;;;;;;;;;5016260;28;20034;-69
2023/09/24 03:57:42;;;;;;;3.72;2.15;;;;;;;;;;5015432;28;20124;-69
2023/09/24 04:00:11;;;;;;;5.13;2.35;;;;;;;;;;5013818;28;20167;-69
2023/09/24 04:02:39;;;;;;;5.63;2.20;;;;;;;;;;5015600;28;20026;-70
2023/09/24 04:05:05;;;;;;;4.93;1.77;;;;;;;;;;5011521;28;20049;-69
2023/09/24 04:07:30;;;;;;;4.55;2.15;;;;;;;;;;5011583;28;20173;-69
2023/09/24 04:09:57;;;;;;;2.97;1.95;;;;;;;;;;5014992;28;20508;-69
2023/09/24 04:12:22;;;;;;;3.22;2.00;;;;;;;;;;5016509;28;20543;-69
2023/09/24 04:14:52;;;;;;;5.68;2.03;;;;;;;;;;5010852;28;20183;-69
2023/09/24 04:17:17;;;;;;;2.88;1.83;;;;;;;;;;5016483;28;20044;-69
2023/09/24 04:19:42;;;;;;;4.63;2.08;;;;;;;;;;5014444;28;20033;-69
2023/09/24 04:22:08;;;;;;;3.55;2.20;;;;;;;;;;5015563;28;20936;-69
2023/09/24 04:24:34;;;;;;;4.95;2.10;;;;;;;;;;5013284;28;20029;-69
2023/09/24 04:27:00;;;;;;;4.30;1.90;;;;;;;;;;5012489;28;20022;-69
2023/09/24 04:29:25;;;;;;;3.67;1.90;;;;;;;;;;5011273;28;20133;-69
2023/09/24 04:31:50;;;;;;;3.63;2.10;;;;;;;;;;5014980;28;20144;-69
2023/09/24 04:34:16;;;;;;;3.47;1.90;;;;;;;;;;5015849;28;20112;-69
2023/09/24 04:36:42;;;;;;;6.90;2.00;;;;;;;;;;5012840;28;20128;-69
2023/09/24 04:39:11;;;;;;;4.65;2.10;;;;;;;;;;5012501;28;20053;-70
2023/09/24 04:41:40;;;;;;;4.65;1.88;;;;;;;;;;5012716;28;20041;-69
2023/09/24 04:44:08;;;;;;;4.88;2.10;;;;;;;;;;5015698;28;20033;-69
2023/09/24 04:46:34;;;;;;;5.90;1.90;;;;;;;;;;5014815;28;20067;-70
2023/09/24 04:49:02;;;;;;;3.17;2.03;;;;;;;;;;5012880;28;20038;-69
2023/09/24 04:51:28;;;;;;;4.18;2.17;;;;;;;;;;5014100;28;20033;-69
2023/09/24 04:53:53;;;;;;;5.47;2.22;;;;;;;;;;5027735;28;20018;-69
2023/09/24 04:56:18;;;;;;;7.82;2.55;;;;;;;;;;5021193;28;20065;-69
2023/09/24 04:58:44;;;;;;;9.43;3.47;;;;;;;;;;5013616;28;20045;-69
2023/09/24 05:01:10;;;;;;;6.97;2.92;;;;;;;;;;5012444;28;20045;-69
2023/09/24 05:03:37;;;;;;;10.80;2.50;;;;;;;;;;5012333;28;20138;-68
2023/09/24 05:06:06;;;;;;;5.30;2.42;;;;;;;;;;5016089;28;20037;-69
2023/09/24 05:08:32;;;;;;;6.55;2.90;;;;;;;;;;5014649;28;20053;-70
2023/09/24 05:10:58;;;;;;;4.35;2.58;;;;;;;;;;5011695;28;20037;-69
2023/09/24 05:13:24;;;;;;;5.78;2.85;;;;;;;;;;5011949;28;20038;-69
2023/09/24 05:15:51;;;;;;;7.05;2.85;;;;;;;;;;5013621;28;20821;-69
2023/09/24 05:18:16;;;;;;;8.80;2.53;;;;;;;;;;5016331;28;20021;-69
2023/09/24 05:20:42;;;;;;;6.97;2.55;;;;;;;;;;5013995;28;20442;-69
2023/09/24 05:23:07;;;;;;;9.27;2.53;;;;;;;;;;5015181;28;20069;-69
2023/09/24 05:25:42;;;;;;;7.35;2.60;;;;;;;;;;5012997;28;20045;-69
2023/09/24 05:28:07;;;;;;;5.30;2.70;;;;;;;;;;5011394;28;20100;-69
2023/09/24 05:30:32;;;;;;;5.38;2.28;;;;;;;;;;5011985;28;20049;-69
2023/09/24 05:32:58;;;;;;;9.98;2.33;;;;;;;;;;5014781;28;20037;-69
2023/09/24 05:35:23;;;;;;;8.18;2.40;;;;;;;;;;5014806;28;20060;-69
2023/09/24 05:37:48;;;;;;;5.38;2.50;;;;;;;;;;5011037;28;20049;-69
2023/09/24 05:40:14;;;;;;;5.30;2.78;;;;;;;;;;5010863;28;20099;-69
2023/09/24 05:42:41;;;;;;;8.05;2.55;;;;;;;;;;5011842;28;20038;-69
2023/09/24 05:45:07;;;;;;;4.55;2.53;;;;;;;;;;5014156;28;20442;-69
2023/09/24 05:47:33;;;;;;;5.57;2.25;;;;;;;;;;5013656;28;20025;-69
2023/09/24 05:49:59;;;;;;;6.85;2.60;;;;;;;;;;5011242;28;20046;-69
2023/09/24 05:52:24;;;;;;;5.63;2.35;;;;;;;;;;5011407;28;20038;-69
2023/09/24 05:54:50;;;;;;;4.28;2.40;;;;;;;;;;5013798;28;20048;-69
2023/09/24 05:57:15;;;;;;;4.18;1.98;;;;;;;;;;5016472;28;20022;-69
2023/09/24 05:59:40;;;;;;;10.18;3.00;;;;;;;;;;5017816;28;20037;-69
2023/09/24 06:02:06;;;;;;;6.07;2.40;;;;;;;;;;5015678;28;20034;-69
2023/09/24 06:04:31;;;;;;;5.15;2.33;;;;;;;;;;5014967;28;20045;-69
2023/09/24 06:06:56;;;;;;;3.97;2.10;;;;;;;;;;5016765;28;20042;-69
2023/09/24 06:09:22;;;;;;;5.80;2.63;;;;;;;;;;5018789;28;20512;-69
2023/09/24 06:11:49;;;;;;;11.85;2.80;;;;;;;;;;5015445;28;20036;-69
2023/09/24 06:14:14;;;;;;;5.85;2.13;;;;;;;;;;5015900;28;20040;-69
2023/09/24 06:16:40;;;;;;;9.68;3.00;;;;;;;;;;5019919;28;20038;-69
2023/09/24 06:19:05;;;;;;;6.13;2.75;;;;;;;;;;5023166;28;20045;-69
2023/09/24 06:21:31;;;;;;;9.90;3.10;;;;;;;;;;5021959;28;20041;-69
2023/09/24 06:23:57;;;;;;;8.40;3.33;;;;;;;;;;5012728;28;20723;-69
2023/09/24 06:26:25;;;;;;;10.98;2.92;;;;;;;;;;5017152;28;20091;-69
2023/09/24 06:28:51;;;;;;;8.43;2.90;;;;;;;;;;5022115;28;20091;-69
2023/09/24 06:31:16;;;;;;;13.32;4.07;;;;;;;;;;5014299;28;20037;-70
2023/09/24 06:33:41;;;;;;;9.70;3.55;;;;;;;;;;5020839;28;20041;-69
2023/09/24 06:36:09;;;;;;;11.85;3.97;;;;;;;;;;5019355;28;20025;-69
2023/09/24 06:38:34;;;;;;;9.48;3.58;;;;;;;;;;5024157;28;20060;-67
2023/09/24 06:41:02;;;;;;;11.95;3.97;;;;;;;;;;5022906;28;20076;-69
2023/09/24 06:43:27;;;;;;;13.02;4.55;;;;;;;;;;5022293;28;20186;-69
2023/09/24 06:45:57;;;;;;;14.57;3.85;;;;;;;;;;5019238;28;20121;-69
2023/09/24 06:48:23;;;;;;;14.07;4.35;;;;;;;;;;5019016;28;20111;-69
2023/09/24 06:50:49;;;;;;;15.80;4.97;;;;;;;;;;5023451;28;20100;-69
2023/09/24 06:53:15;;;;;;;10.32;4.13;;;;;;;;;;5015927;28;20072;-69
2023/09/24 06:55:40;;;;;;;15.02;4.28;;;;;;;;;;5013202;28;20072;-69
2023/09/24 06:58:06;;;;;;;12.88;4.47;;;;;;;;;;5000971;28;20043;-69
2023/09/24 07:00:32;;;;;;;11.10;3.65;;;;;;;;;;5000644;28;20119;-69
2023/09/24 07:02:57;;;;;;;15.00;4.70;;;;;;;;;;5016155;28;20104;-69
2023/09/24 07:05:23;;;;;;;17.83;5.05;;;;;;;;;;5018028;28;20033;-69
2023/09/24 07:07:48;;;;;;;11.75;4.05;;;;;;;;;;5016726;28;20638;-69
2023/09/24 07:10:14;;;;;;;10.25;4.20;;;;;;;;;;5016364;28;20037;-69
2023/09/24 07:12:40;;;;;;;10.50;4.05;;;;;;;;;;5016361;28;20128;-69
2023/09/24 07:15:07;;;;;;;10.98;3.30;;;;;;;;;;5016459;28;20026;-69
2023/09/24 07:17:32;;;;;;;9.13;3.85;;;;;;;;;;5012328;28;20037;-68
2023/09/24 07:19:58;;;;;;;9.13;3.67;;;;;;;;;;5016909;28;20905;-69
2023/09/24 07:22:26;;;;;;;5.82;2.78;;;;;;;;;;5017127;28;20046;-69
2023/09/24 07:24:52;;;;;;;6.93;2.83;;;;;;;;;;5017948;28;20037;-69
2023/09/24 07:27:19;;;;;;;8.15;3.05;;;;;;;;;;5016907;28;20026;-69
2023/09/24 07:29:45;;;;;;;9.43;3.15;;;;;;;;;;5013371;28;20533;-69
2023/09/24 07:32:11;;;;;;;6.20;3.03;;;;;;;;;;5013394;28;20038;-69
2023/09/24 07:34:36;;;;;;;5.88;3.30;;;;;;;;;;5013908;28;20079;-69
2023/09/24 07:37:03;;;;;;;5.25;2.72;;;;;;;;;;5016527;28;20037;-68
2023/09/24 07:39:29;;;;;;;4.40;2.33;;;;;;;;;;5013720;28;20758;-69
2023/09/24 07:41:55;;;;;;;5.05;2.40;;;;;;;;;;5015390;28;20033;-68
2023/09/24 07:44:20;;;;;;;5.07;2.47;;;;;;;;;;5025625;28;20029;-68
2023/09/24 07:46:48;;;;;;;4.40;2.22;;;;;;;;;;5019982;28;20041;-68
2023/09/24 07:49:14;;;;;;;4.38;2.08;;;;;;;;;;5013058;28;20038;-68
2023/09/24 07:51:40;;;;;;;4.50;2.55;;;;;;;;;;5012088;28;20050;-68
2023/09/24 07:54:06;;;;;;;5.78;2.47;;;;;;;;;;5019742;28;20025;-68
2023/09/24 07:56:32;;;;;;;4.00;2.67;;;;;;;;;;5005440;28;20034;-68
2023/09/24 07:58:57;;;;;;;4.93;2.40;;;;;;;;;;5006830;28;20041;-68
2023/09/24 08:01:23;;;;;;;6.75;2.50;;;;;;;;;;5003177;28;20405;-69
2023/09/24 08:03:49;;;;;;;4.72;2.75;;;;;;;;;;5014382;28;20665;-69
2023/09/24 08:06:14;;;;;;;8.93;2.67;;;;;;;;;;5020534;28;20052;-68
2023/09/24 08:08:40;;;;;;;5.07;2.92;;;;;;;;;;5019228;28;20039;-68
2023/09/24 08:11:05;;;;;;;10.30;3.03;;;;;;;;;;5012599;28;20048;-69
2023/09/24 08:13:33;;;;;;;7.53;3.85;;;;;;;;;;5012569;28;20128;-69
2023/09/24 08:15:59;;;;;;;7.50;2.47;;;;;;;;;;5014385;28;20100;-69
2023/09/24 08:18:25;;;;;;;8.13;2.60;;;;;;;;;;5015008;28;20038;-69
2023/09/24 08:20:53;;;;;;;5.05;2.60;;;;;;;;;;5016911;28;20540;-69
2023/09/24 08:23:20;;;;;;;3.83;2.65;;;;;;;;;;5016126;28;20033;-69
2023/09/24 08:25:45;;;;;;;3.92;2.72;;;;;;;;;;5012925;28;20273;-69
2023/09/24 08:28:11;;;;;;;4.85;2.70;;;;;;;;;;5012248;28;20594;-69
2023/09/24 08:30:37;;;;;;;4.25;2.30;;;;;;;;;;5008002;28;20034;-69
2023/09/24 08:33:04;;;;;;;5.38;2.58;;;;;;;;;;5008321;28;20391;-69
2023/09/24 08:35:29;;;;;;;7.35;2.60;;;;;;;;;;5015041;28;20878;-69
2023/09/24 08:37:56;;;;;;;5.88;2.53;;;;;;;;;;5011677;28;20042;-69
2023/09/24 08:40:21;;;;;;;7.00;2.25;;;;;;;;;;5008933;28;20092;-69
2023/09/24 08:42:50;;;;;;;7.72;2.70;;;;;;;;;;5012892;28;20466;-69
2023/09/24 08:45:20;;;;;;;3.97;2.50;;;;;;;;;;5013534;28;20036;-69
2023/09/24 08:47:47;;;;;;;6.57;2.75;;;;;;;;;;5013081;28;20034;-69
2023/09/24 08:50:13;;;;;;;7.00;2.78;;;;;;;;;;5017106;28;20029;-69
2023/09/24 08:52:42;;;;;;;10.00;3.47;;;;;;;;;;5014654;28;20051;-69
2023/09/24 08:55:09;;;;;;;7.65;3.20;;;;;;;;;;5009460;28;20044;-69
2023/09/24 08:57:38;;;;;;;4.22;2.58;;;;;;;;;;5006370;28;20276;-69
2023/09/24 09:00:11;;;;;;;3.83;2.30;;;;;;;;;;5013368;28;20048;-71
2023/09/24 09:02:40;;;;;;;5.77;2.30;;;;;;;;;;5013446;28;20422;-71
2023/09/24 09:05:11;;;;;;;2.67;1.83;;;;;;;;;;5019763;28;20080;-70
2023/09/24 09:07:37;;;;;;;5.88;2.40;;;;;;;;;;5015497;28;20053;-71
2023/09/24 09:10:04;;;;;;;3.65;1.85;;;;;;;;;;5014818;28;20426;-70
2023/09/24 09:12:30;;;;;;;5.95;2.70;;;;;;;;;;5012890;28;20541;-69
2023/09/24 09:14:56;;;;;;;4.25;2.40;;;;;;;;;;5011084;28;20091;-69
2023/09/24 09:17:22;;;;;;;6.32;2.58;;;;;;;;;;5011521;28;20033;-69
2023/09/24 09:19:57;;;;;;;5.20;2.30;;;;;;;;;;5010615;28;20045;-69
2023/09/24 09:22:29;;;;;;;4.38;2.08;;;;;;;;;;5014891;28;20898;-69
2023/09/24 09:25:04;;;;;;;4.97;1.98;;;;;;;;;;5014573;28;20124;-69
2023/09/24 09:27:37;;;;;;;4.20;1.98;;;;;;;;;;5014598;28;20191;-69
2023/09/24 09:30:17;;;;;;;3.72;2.00;;;;;;;;;;5012600;28;20602;-69
2023/09/24 09:32:44;;;;;;;8.50;1.80;;;;;;;;;;5010433;28;20038;-69
2023/09/24 09:35:10;;;;;;;3.60;1.50;;;;;;;;;;5014708;28;20041;-69
2023/09/24 09:37:37;;;;;;;4.20;1.88;;;;;;;;;;5012597;28;20855;-69
2023/09/24 09:40:04;;;;;;;2.72;1.65;;;;;;;;;;5009466;28;20093;-69
2023/09/24 09:42:48;;;;;;;3.08;1.60;;;;;;;;;;5053690;28;20408;-69
2023/09/24 09:45:13;;;;;;;4.80;1.83;;;;;;;;;;5027243;28;20784;-71
2023/09/24 09:47:56;;;;;;;2.88;1.40;;;;;;;;;;5038627;28;20081;-70
2023/09/24 09:50:25;;;;;;;2.63;1.88;;;;;;;;;;5018042;28;20133;-70
2023/09/24 09:52:54;;;;;;;2.40;1.42;;;;;;;;;;5013297;28;20042;-69
2023/09/24 09:55:20;;;;;;;3.13;1.20;;;;;;;;;;5018155;28;20084;-70
2023/09/24 09:57:46;;;;;;;2.95;1.33;;;;;;;;;;5017196;28;20163;-70
2023/09/24 10:00:12;;;;;;;3.58;1.52;;;;;;;;;;5018957;28;20022;-70
2023/09/24 10:02:40;;;;;;;7.30;1.63;;;;;;;;;;5017478;28;20037;-70
2023/09/24 10:05:08;;;;;;;4.95;1.77;;;;;;;;;;5016549;28;20046;-70
2023/09/24 10:07:40;;;;;;;4.32;1.63;;;;;;;;;;5020012;28;20092;-70
2023/09/24 10:10:32;;;;;;;2.63;1.35;;;;;;;;;;5011282;28;20042;-70
2023/09/24 10:13:02;;;;;;;2.67;1.50;;;;;;;;;;5017899;28;20091;-70
2023/09/24 10:15:30;;;;;;;7.47;1.75;;;;;;;;;;5019879;28;20048;-69
2023/09/24 10:18:11;;;;;;;3.08;1.63;;;;;;;;;;5020387;28;20029;-69
2023/09/24 10:20:48;;;;;;;3.80;1.50;;;;;;;;;;5020213;28;20048;-70
2023/09/24 10:23:29;;;;;;;2.92;1.25;;;;;;;;;;5018886;28;20487;-70
2023/09/24 10:25:59;;;;;;;4.18;1.40;;;;;;;;;;5021198;28;20042;-70
2023/09/24 10:28:51;;;;;;;3.67;1.40;;;;;;;;;;5030321;28;20120;-70
2023/09/24 10:31:21;;;;;;;1.55;1.02;;;;;;;;;;5014283;28;20034;-70
2023/09/24 10:34:02;;;;;;;3.17;1.10;;;;;;;;;;5015096;28;20042;-70
2023/09/24 10:36:29;;;;;;;1.75;1.17;;;;;;;;;;5011784;28;20049;-70
2023/09/24 10:39:06;;;;;;;2.67;1.38;;;;;;;;;;5019644;28;20029;-71
2023/09/24 10:41:33;;;;;;;1.58;1.10;;;;;;;;;;5019496;28;20077;-70
2023/09/24 10:44:21;;;;;;;3.03;1.17;;;;;;;;;;5008809;28;20041;-71
2023/09/24 10:46:47;;;;;;;5.78;1.20;;;;;;;;;;5016251;28;20061;-70
2023/09/24 10:49:21;;;;;;;2.08;1.13;;;;;;;;;;5010291;28;20129;-70
2023/09/24 10:51:47;;;;;;;2.80;1.10;;;;;;;;;;5016265;28;20041;-70
2023/09/24 10:54:16;;;;;;;2.40;1.50;;;;;;;;;;4998491;28;20044;-70
2023/09/24 10:56:48;;;;;;;1.98;1.30;;;;;;;;;;5005157;28;20051;-69
2023/09/24 10:59:30;;;;;;;3.40;1.35;;;;;;;;;;5006269;28;20042;-70
2023/09/24 11:01:55;;;;;;;2.50;1.13;;;;;;;;;;5003605;28;20045;-70
2023/09/24 11:04:27;;;;;;;2.70;1.02;;;;;;;;;;5002886;28;20030;-70
2023/09/24 11:06:52;;;;;;;3.67;1.23;;;;;;;;;;5003423;28;20030;-70
2023/09/24 11:09:22;;;;;;;1.58;1.00;;;;;;;;;;5004881;28;20055;-70
2023/09/24 11:11:48;;;;;;;1.67;1.30;;;;;;;;;;4995074;28;20037;-70
2023/09/24 11:14:13;;;;;;;3.17;1.48;;;;;;;;;;4993348;28;20034;-70
2023/09/24 11:16:39;;;;;;;4.30;1.38;;;;;;;;;;5000690;28;20084;-70
2023/09/24 11:19:04;;;;;;;3.25;1.02;;;;;;;;;;5005221;28;20033;-70
2023/09/24 11:21:31;;;;;;;1.38;0.93;;;;;;;;;;5005322;28;20042;-71
2023/09/24 11:23:56;;;;;;;2.40;1.10;;;;;;;;;;4997381;28;20030;-70
2023/09/24 11:26:28;;;;;;;2.75;1.25;;;;;;;;;;5003237;28;20053;-70
2023/09/24 11:28:57;;;;;;;3.22;1.40;;;;;;;;;;5004945;28;20109;-70
2023/09/24 11:31:26;;;;;;;1.88;1.30;;;;;;;;;;5004611;28;20550;-70
2023/09/24 11:33:56;;;;;;;2.55;1.20;;;;;;;;;;5000698;28;20038;-70
2023/09/24 11:36:22;;;;;;;3.90;1.20;;;;;;;;;;5001785;28;20494;-70
2023/09/24 11:38:49;;;;;;;1.85;1.30;;;;;;;;;;5005496;28;20029;-69
2023/09/24 11:41:14;;;;;;;1.70;1.00;;;;;;;;;;4998502;28;20046;-69
2023/09/24 11:43:41;;;;;;;3.40;1.15;;;;;;;;;;4999236;28;20049;-69
2023/09/24 11:46:21;;;;;;;1.92;0.95;;;;;;;;;;5005346;28;20037;-69
2023/09/24 11:48:47;;;;;;;2.10;0.80;;;;;;;;;;5000103;28;20037;-69
2023/09/24 11:51:12;;;;;;;2.58;1.52;;;;;;;;;;5011407;28;20148;-69
2023/09/24 11:53:38;;;;;;;3.17;1.20;;;;;;;;;;5005681;28;20300;-69
2023/09/24 11:56:04;;;;;;;3.63;1.30;;;;;;;;;;5004270;28;20052;-69
2023/09/24 11:58:30;;;;;;;1.10;0.90;;;;;;;;;;5004406;28;20038;-69
2023/09/24 12:00:58;;;;;;;1.10;1.00;;;;;;;;;;5003784;28;20096;-69
2023/09/24 12:03:24;;;;;;;2.33;0.98;;;;;;;;;;5004376;28;20034;-69
2023/09/24 12:05:50;;;;;;;3.30;2.03;;;;;;;;;;5003289;28;20458;-70
2023/09/24 12:08:15;;;;;;;1.20;1.05;;;;;;;;;;5003810;28;20054;-69
2023/09/24 12:10:43;;;;;;;1.73;1.15;;;;;;;;;;5004244;28;20064;-69
2023/09/24 12:13:09;;;;;;;2.63;1.35;;;;;;;;;;5004199;28;20038;-69
2023/09/24 12:15:35;;;;;;;3.15;0.98;;;;;;;;;;5003804;28;20076;-69
2023/09/24 12:18:04;;;;;;;2.25;1.10;;;;;;;;;;5004373;28;20438;-69
2023/09/24 12:20:31;;;;;;;3.00;1.40;;;;;;;;;;5004068;28;20042;-69
2023/09/24 12:22:58;;;;;;;2.25;1.00;;;;;;;;;;5003368;28;20060;-69
2023/09/24 12:25:24;;;;;;;2.90;0.77;;;;;;;;;;4999389;28;20038;-69
2023/09/24 12:27:50;;;;;;;3.03;1.10;;;;;;;;;;4990537;28;20073;-69
2023/09/24 12:30:15;;;;;;;1.00;0.88;;;;;;;;;;5003574;28;20038;-69
2023/09/24 12:32:42;;;;;;;3.25;1.20;;;;;;;;;;5002798;28;20022;-69
2023/09/24 12:35:11;;;;;;;2.35;1.10;;;;;;;;;;5002202;28;20045;-69
2023/09/24 12:37:37;;;;;;;2.78;1.20;;;;;;;;;;4999735;28;20053;-69
2023/09/24 12:40:07;;;;;;;2.17;1.20;;;;;;;;;;5003597;28;20519;-69
2023/09/24 12:42:40;;;;;;;2.50;1.25;;;;;;;;;;5003381;28;20054;-69
2023/09/24 12:45:07;;;;;;;3.75;1.33;;;;;;;;;;4990960;28;20034;-69
2023/09/24 12:47:33;;;;;;;2.35;1.23;;;;;;;;;;5001412;28;20041;-69
2023/09/24 12:50:00;;;;;;;3.25;1.15;;;;;;;;;;5003482;28;20539;-69
2023/09/24 12:52:31;;;;;;;4.32;1.25;;;;;;;;;;5003515;28;20643;-69
2023/09/24 12:54:57;;;;;;;2.03;0.90;;;;;;;;;;5000183;28;20037;-69
2023/09/24 12:57:22;;;;;;;1.90;1.30;;;;;;;;;;5002126;28;20025;-69
2023/09/24 12:59:47;;;;;;;1.85;1.20;;;;;;;;;;4998185;28;20030;-69
2023/09/24 13:02:14;;;;;;;3.75;1.10;;;;;;;;;;5003427;28;20042;-69
2023/09/24 13:04:39;;;;;;;1.85;1.10;;;;;;;;;;5003435;28;20214;-69
2023/09/24 13:07:05;;;;;;;3.10;1.00;;;;;;;;;;5003616;28;20595;-69
2023/09/24 13:09:30;;;;;;;3.88;1.40;;;;;;;;;;5003134;28;20046;-69
2023/09/24 13:11:58;;;;;;;1.80;1.10;;;;;;;;;;5006162;28;20030;-69
2023/09/24 13:14:24;;;;;;;1.33;0.93;;;;;;;;;;5002001;28;20038;-69
2023/09/24 13:16:49;;;;;;;1.58;1.00;;;;;;;;;;5002253;28;20052;-69
2023/09/24 13:19:15;;;;;;;4.13;1.35;;;;;;;;;;4999986;28;20033;-69
2023/09/24 13:21:41;;;;;;;3.25;1.10;;;;;;;;;;5002767;28;20158;-69
2023/09/24 13:24:07;;;;;;;0.93;0.73;;;;;;;;;;5000456;28;20517;-69
2023/09/24 13:26:33;;;;;;;0.88;0.70;;;;;;;;;;5003207;28;20039;-69
2023/09/24 13:28:58;;;;;;;1.20;0.90;;;;;;;;;;5003025;28;20042;-69
2023/09/24 13:31:24;;;;;;;2.40;0.95;;;;;;;;;;5002837;28;20534;-69
2023/09/24 13:33:49;;;;;;;2.47;1.20;;;;;;;;;;5001100;28;20049;-69
2023/09/24 13:36:15;;;;;;;2.72;1.25;;;;;;;;;;5002867;28;20025;-69
2023/09/24 13:38:41;;;;;;;3.63;1.20;;;;;;;;;;5002587;28;20025;-69
2023/09/24 13:41:10;;;;;;;2.55;1.17;;;;;;;;;;5002692;28;20467;-69
2023/09/24 13:43:36;;;;;;;2.90;1.33;;;;;;;;;;5001806;28;20049;-69
2023/09/24 13:46:01;;;;;;;2.78;1.10;;;;;;;;;;5001330;28;20046;-69
2023/09/24 13:48:26;;;;;;;1.33;1.15;;;;;;;;;;5002702;28;20053;-69
2023/09/24 13:50:52;;;;;;;1.48;0.90;;;;;;;;;;5003221;28;20025;-69
2023/09/24 13:53:18;;;;;;;1.48;1.20;;;;;;;;;;5002413;28;20153;-69
2023/09/24 13:55:44;;;;;;;2.05;1.05;;;;;;;;;;5000403;28;20471;-69
2023/09/24 13:58:10;;;;;;;2.05;0.93;;;;;;;;;;4996713;28;20038;-70
2023/09/24 14:00:36;;;;;;;1.90;1.20;;;;;;;;;;5001192;28;20045;-70
2023/09/24 14:03:01;;;;;;;1.45;0.80;;;;;;;;;;5002689;28;20029;-70
2023/09/24 14:05:30;;;;;;;3.10;1.38;;;;;;;;;;5003013;28;20049;-70
2023/09/24 14:12:17;;;;;;;2.20;1.05;;;;;;;;;;5001916;28;20046;-69
2023/09/24 14:13:26;;;;;;;1.90;0.90;;;;;;;;;;5003211;28;20569;-69
2023/09/24 14:15:51;;;;;;;1.58;1.00;;;;;;;;;;5002533;28;20539;-69
2023/09/24 14:18:16;;;;;;;6.35;1.15;;;;;;;;;;5003243;28;20036;-69
2023/09/24 14:20:42;;;;;;;1.85;1.00;;;;;;;;;;4998112;28;20080;-70
2023/09/24 14:23:07;;;;;;;2.03;1.00;;;;;;;;;;4997302;28;20045;-69
2023/09/24 14:25:40;;;;;;;1.98;0.80;;;;;;;;;;5002234;28;20050;-69
2023/09/24 14:28:06;;;;;;;1.58;1.15;;;;;;;;;;4996985;28;20072;-69
2023/09/24 14:30:36;;;;;;;2.85;1.00;;;;;;;;;;5002435;28;20034;-69
2023/09/24 14:33:02;;;;;;;3.60;1.33;;;;;;;;;;4998554;28;20080;-69
2023/09/24 14:35:28;;;;;;;1.48;1.00;;;;;;;;;;5007506;28;20622;-69
2023/09/24 14:37:53;;;;;;;4.15;1.15;;;;;;;;;;5011317;28;20065;-69
2023/09/24 14:40:18;;;;;;;2.53;1.10;;;;;;;;;;4996464;28;20046;-69
2023/09/24 14:42:44;;;;;;;1.85;1.00;;;;;;;;;;5002652;28;20049;-69
2023/09/24 14:45:09;;;;;;;4.38;1.02;;;;;;;;;;5002861;28;20049;-66